sensor_id;sensor_type;location;lat;lon;timestamp;pressure;altitude;pressure_sealevel;temperature;humidity
30021;BME280;16861;52.294;7.760;2023-02-11T00:00:40;101398.78;;;8.27;66.95
30021;BME280;16861;52.294;7.760;2023-02-11T00:03:07;101400.44;;;8.31;66.65
30021;BME280;16861;52.294;7.760;2023-02-11T00:05:34;101412.69;;;8.30;66.30
30021;BME280;16861;52.294;7.760;2023-02-11T00:08:00;101393.47;;;8.30;66.60
30021;BME280;16861;52.294;7.760;2023-02-11T00:10:27;101397.81;;;8.31;66.60
30021;BME280;16861;52.294;7.760;2023-02-11T00:12:53;101396.94;;;8.30;66.43
30021;BME280;16861;52.294;7.760;2023-02-11T00:15:20;101402.19;;;8.30;66.46
30021;BME280;16861;52.294;7.760;2023-02-11T00:17:46;101390.84;;;8.30;66.74
30021;BME280;16861;52.294;7.760;2023-02-11T00:20:13;101393.50;;;8.28;66.57
30021;BME280;16861;52.294;7.760;2023-02-11T00:22:39;101381.28;;;8.27;66.78
30021;BME280;16861;52.294;7.760;2023-02-11T00:25:06;101379.53;;;8.26;67.01
30021;BME280;16861;52.294;7.760;2023-02-11T00:27:33;101383.03;;;8.27;66.85
30021;BME280;16861;52.294;7.760;2023-02-11T00:29:59;101375.16;;;8.27;66.67
30021;BME280;16861;52.294;7.760;2023-02-11T00:32:27;101396.97;;;8.29;66.78
30021;BME280;16861;52.294;7.760;2023-02-11T00:34:53;101389.97;;;8.29;66.95
30021;BME280;16861;52.294;7.760;2023-02-11T00:37:21;101390.81;;;8.31;66.63
30021;BME280;16861;52.294;7.760;2023-02-11T00:39:47;101403.88;;;8.33;67.00
30021;BME280;16861;52.294;7.760;2023-02-11T00:42:15;101393.38;;;8.33;67.08
30021;BME280;16861;52.294;7.760;2023-02-11T00:44:42;101383.78;;;8.32;67.04
30021;BME280;16861;52.294;7.760;2023-02-11T00:47:08;101388.13;;;8.33;66.79
30021;BME280;16861;52.294;7.760;2023-02-11T00:49:35;101390.75;;;8.33;67.10
30021;BME280;16861;52.294;7.760;2023-02-11T00:52:02;101388.13;;;8.33;66.98
30021;BME280;16861;52.294;7.760;2023-02-11T00:54:28;101405.63;;;8.34;66.84
30021;BME280;16861;52.294;7.760;2023-02-11T00:56:55;101405.63;;;8.34;67.03
30021;BME280;16861;52.294;7.760;2023-02-11T00:59:21;101420.47;;;8.35;67.06
30021;BME280;16861;52.294;7.760;2023-02-11T01:01:48;101423.94;;;8.35;66.78
30021;BME280;16861;52.294;7.760;2023-02-11T01:04:14;101431.78;;;8.37;67.10
30021;BME280;16861;52.294;7.760;2023-02-11T01:06:41;101415.16;;;8.38;67.14
30021;BME280;16861;52.294;7.760;2023-02-11T01:09:07;101411.66;;;8.38;66.95
30021;BME280;16861;52.294;7.760;2023-02-11T01:11:34;101394.22;;;8.37;67.05
30021;BME280;16861;52.294;7.760;2023-02-11T01:14:01;101388.97;;;8.37;67.19
30021;BME280;16861;52.294;7.760;2023-02-11T01:16:28;101381.09;;;8.37;67.15
30021;BME280;16861;52.294;7.760;2023-02-11T01:18:54;101380.22;;;8.36;67.45
30021;BME280;16861;52.294;7.760;2023-02-11T01:21:21;101386.34;;;8.37;66.92
30021;BME280;16861;52.294;7.760;2023-02-11T01:23:47;101389.00;;;8.35;67.13
30021;BME280;16861;52.294;7.760;2023-02-11T01:26:14;101385.50;;;8.34;67.12
30021;BME280;16861;52.294;7.760;2023-02-11T01:28:40;101391.63;;;8.35;67.05
30021;BME280;16861;52.294;7.760;2023-02-11T01:31:07;101387.22;;;8.35;67.31
30021;BME280;16861;52.294;7.760;2023-02-11T01:33:33;101388.09;;;8.36;67.56
30021;BME280;16861;52.294;7.760;2023-02-11T01:36:04;101385.50;;;8.34;67.71
30021;BME280;16861;52.294;7.760;2023-02-11T01:38:31;101381.06;;;8.38;67.12
30021;BME280;16861;52.294;7.760;2023-02-11T01:41:06;101379.34;;;8.35;67.56
30021;BME280;16861;52.294;7.760;2023-02-11T01:43:36;101367.94;;;8.38;67.43
30021;BME280;16861;52.294;7.760;2023-02-11T01:46:12;101369.75;;;8.34;67.96
30021;BME280;16861;52.294;7.760;2023-02-11T01:48:54;101374.16;;;8.34;68.26
30021;BME280;16861;52.294;7.760;2023-02-11T01:51:29;101367.13;;;8.34;67.77
30021;BME280;16861;52.294;7.760;2023-02-11T01:53:58;101374.09;;;8.35;67.23
30021;BME280;16861;52.294;7.760;2023-02-11T01:56:47;101379.44;;;8.32;68.05
30021;BME280;16861;52.294;7.760;2023-02-11T01:59:38;101373.25;;;8.35;67.75
30021;BME280;16861;52.294;7.760;2023-02-11T02:02:09;101368.84;;;8.35;67.79
30021;BME280;16861;52.294;7.760;2023-02-11T02:04:51;101359.25;;;8.34;68.33
30021;BME280;16861;52.294;7.760;2023-02-11T02:07:47;101361.03;;;8.34;68.47
30021;BME280;16861;52.294;7.760;2023-02-11T02:10:18;101361.84;;;8.36;67.74
30021;BME280;16861;52.294;7.760;2023-02-11T02:12:46;101355.66;;;8.39;67.40
30021;BME280;16861;52.294;7.760;2023-02-11T02:15:19;101354.84;;;8.37;67.95
30021;BME280;16861;52.294;7.760;2023-02-11T02:17:56;101341.72;;;8.37;67.95
30021;BME280;16861;52.294;7.760;2023-02-11T02:26:48;101335.56;;;8.38;68.16
30021;BME280;16861;52.294;7.760;2023-02-11T02:37:46;101343.53;;;8.33;68.09
30021;BME280;16861;52.294;7.760;2023-02-11T02:40:19;101347.94;;;8.32;67.95
30021;BME280;16861;52.294;7.760;2023-02-11T02:42:47;101349.66;;;8.33;67.64
30021;BME280;16861;52.294;7.760;2023-02-11T02:45:14;101351.41;;;8.33;67.41
30021;BME280;16861;52.294;7.760;2023-02-11T02:47:40;101339.16;;;8.33;67.53
30021;BME280;16861;52.294;7.760;2023-02-11T02:50:08;101348.84;;;8.31;67.96
30021;BME280;16861;52.294;7.760;2023-02-11T02:53:10;101347.09;;;8.30;68.55
30021;BME280;16861;52.294;7.760;2023-02-11T02:55:58;101357.56;;;8.32;68.39
30021;BME280;16861;52.294;7.760;2023-02-11T02:58:39;101352.31;;;8.32;68.13
30021;BME280;16861;52.294;7.760;2023-02-11T03:03:59;101353.94;;;8.38;67.52
30021;BME280;16861;52.294;7.760;2023-02-11T03:06:30;101340.78;;;8.39;67.59
30021;BME280;16861;52.294;7.760;2023-02-11T03:09:07;101353.97;;;8.36;68.38
30021;BME280;16861;52.294;7.760;2023-02-11T03:11:38;101349.50;;;8.40;67.69
30021;BME280;16861;52.294;7.760;2023-02-11T03:14:08;101347.75;;;8.40;67.46
30021;BME280;16861;52.294;7.760;2023-02-11T03:16:37;101335.53;;;8.39;67.79
30021;BME280;16861;52.294;7.760;2023-02-11T03:19:12;101344.34;;;8.37;67.96
30021;BME280;16861;52.294;7.760;2023-02-11T03:21:41;101335.50;;;8.41;67.82
30021;BME280;16861;52.294;7.760;2023-02-11T03:24:14;101341.63;;;8.40;68.23
30021;BME280;16861;52.294;7.760;2023-02-11T03:26:47;101338.13;;;8.41;67.82
30021;BME280;16861;52.294;7.760;2023-02-11T03:29:21;101330.28;;;8.41;67.96
30021;BME280;16861;52.294;7.760;2023-02-11T03:34:59;101332.94;;;8.39;68.35
30021;BME280;16861;52.294;7.760;2023-02-11T03:37:39;101322.41;;;8.41;68.36
30021;BME280;16861;52.294;7.760;2023-02-11T03:40:11;101317.13;;;8.42;67.47
30021;BME280;16861;52.294;7.760;2023-02-11T03:42:42;101323.34;;;8.38;67.85
30021;BME280;16861;52.294;7.760;2023-02-11T03:45:13;101314.63;;;8.36;67.90
30021;BME280;16861;52.294;7.760;2023-02-11T03:47:58;101319.91;;;8.34;68.06
30021;BME280;16861;52.294;7.760;2023-02-11T03:50:27;101329.53;;;8.34;68.02
30021;BME280;16861;52.294;7.760;2023-02-11T03:52:56;101340.03;;;8.34;68.19
30021;BME280;16861;52.294;7.760;2023-02-11T03:55:24;101354.88;;;8.35;68.19
30021;BME280;16861;52.294;7.760;2023-02-11T03:57:51;101356.63;;;8.34;68.09
30021;BME280;16861;52.294;7.760;2023-02-11T04:00:18;101348.75;;;8.34;68.16
30021;BME280;16861;52.294;7.760;2023-02-11T04:02:45;101336.50;;;8.35;68.42
30021;BME280;16861;52.294;7.760;2023-02-11T04:05:14;101331.28;;;8.33;68.30
30021;BME280;16861;52.294;7.760;2023-02-11T04:07:41;101335.63;;;8.34;68.30
30021;BME280;16861;52.294;7.760;2023-02-11T04:10:07;101326.00;;;8.35;68.43
30021;BME280;16861;52.294;7.760;2023-02-11T04:12:34;101327.78;;;8.33;68.47
30021;BME280;16861;52.294;7.760;2023-02-11T04:15:01;101336.56;;;8.32;68.31
30021;BME280;16861;52.294;7.760;2023-02-11T04:17:27;101333.94;;;8.32;68.50
30021;BME280;16861;52.294;7.760;2023-02-11T04:19:54;101329.56;;;8.32;68.64
30021;BME280;16861;52.294;7.760;2023-02-11T04:22:20;101321.72;;;8.31;68.67
30021;BME280;16861;52.294;7.760;2023-02-11T04:24:47;101324.31;;;8.32;68.65
30021;BME280;16861;52.294;7.760;2023-02-11T04:27:13;101320.81;;;8.32;68.47
30021;BME280;16861;52.294;7.760;2023-02-11T04:29:40;101323.41;;;8.33;68.56
30021;BME280;16861;52.294;7.760;2023-02-11T04:32:07;101318.22;;;8.32;68.57
30021;BME280;16861;52.294;7.760;2023-02-11T04:34:33;101319.91;;;8.33;68.44
30021;BME280;16861;52.294;7.760;2023-02-11T04:37:00;101322.53;;;8.33;68.55
30021;BME280;16861;52.294;7.760;2023-02-11T04:39:26;101327.75;;;8.34;68.63
30021;BME280;16861;52.294;7.760;2023-02-11T04:41:53;101336.50;;;8.35;68.54
30021;BME280;16861;52.294;7.760;2023-02-11T04:44:19;101338.22;;;8.36;68.49
30021;BME280;16861;52.294;7.760;2023-02-11T04:46:46;101339.09;;;8.37;68.46
30021;BME280;16861;52.294;7.760;2023-02-11T04:49:14;101329.44;;;8.37;68.50
30021;BME280;16861;52.294;7.760;2023-02-11T04:51:41;101326.81;;;8.37;68.56
30021;BME280;16861;52.294;7.760;2023-02-11T04:54:08;101331.22;;;8.37;68.74
30021;BME280;16861;52.294;7.760;2023-02-11T04:56:35;101345.19;;;8.37;68.79
30021;BME280;16861;52.294;7.760;2023-02-11T04:59:01;101338.22;;;8.36;68.71
30021;BME280;16861;52.294;7.760;2023-02-11T05:01:28;101339.97;;;8.35;68.80
30021;BME280;16861;52.294;7.760;2023-02-11T05:03:55;101334.78;;;8.34;68.87
30021;BME280;16861;52.294;7.760;2023-02-11T05:06:21;101342.66;;;8.34;68.70
30021;BME280;16861;52.294;7.760;2023-02-11T05:08:48;101339.16;;;8.33;68.64
30021;BME280;16861;52.294;7.760;2023-02-11T05:11:17;101333.94;;;8.32;68.63
30021;BME280;16861;52.294;7.760;2023-02-11T05:13:44;101337.41;;;8.34;68.96
30021;BME280;16861;52.294;7.760;2023-02-11T05:16:12;101336.56;;;8.32;68.60
30021;BME280;16861;52.294;7.760;2023-02-11T05:18:40;101346.22;;;8.31;68.68
30021;BME280;16861;52.294;7.760;2023-02-11T05:21:16;101339.25;;;8.29;69.40
30021;BME280;16861;52.294;7.760;2023-02-11T05:23:43;101347.06;;;8.32;68.87
30021;BME280;16861;52.294;7.760;2023-02-11T05:26:11;101341.81;;;8.32;68.76
30021;BME280;16861;52.294;7.760;2023-02-11T05:28:38;101328.72;;;8.30;68.87
30021;BME280;16861;52.294;7.760;2023-02-11T05:31:04;101326.06;;;8.32;68.80
30021;BME280;16861;52.294;7.760;2023-02-11T05:33:31;101333.97;;;8.30;69.27
30021;BME280;16861;52.294;7.760;2023-02-11T05:35:59;101337.50;;;8.29;68.73
30021;BME280;16861;52.294;7.760;2023-02-11T05:38:26;101347.09;;;8.30;69.00
30021;BME280;16861;52.294;7.760;2023-02-11T05:40:53;101339.19;;;8.32;68.97
30021;BME280;16861;52.294;7.760;2023-02-11T05:43:20;101333.94;;;8.32;68.91
30021;BME280;16861;52.294;7.760;2023-02-11T05:45:47;101330.47;;;8.31;69.28
30021;BME280;16861;52.294;7.760;2023-02-11T05:48:14;101334.81;;;8.32;69.28
30021;BME280;16861;52.294;7.760;2023-02-11T05:50:41;101334.81;;;8.32;68.99
30021;BME280;16861;52.294;7.760;2023-02-11T05:53:07;101332.22;;;8.31;69.21
30021;BME280;16861;52.294;7.760;2023-02-11T05:55:34;101327.88;;;8.30;69.50
30021;BME280;16861;52.294;7.760;2023-02-11T05:58:01;101328.72;;;8.30;69.31
30021;BME280;16861;52.294;7.760;2023-02-11T06:00:27;101325.28;;;8.28;69.56
30021;BME280;16861;52.294;7.760;2023-02-11T06:02:54;101328.75;;;8.29;69.54
30021;BME280;16861;52.294;7.760;2023-02-11T06:05:21;101331.38;;;8.29;69.65
30021;BME280;16861;52.294;7.760;2023-02-11T06:07:47;101333.13;;;8.30;69.32
30021;BME280;16861;52.294;7.760;2023-02-11T06:10:14;101327.88;;;8.30;69.83
30021;BME280;16861;52.294;7.760;2023-02-11T06:12:40;101313.88;;;8.31;69.48
30021;BME280;16861;52.294;7.760;2023-02-11T06:15:07;101324.34;;;8.31;69.27
30021;BME280;16861;52.294;7.760;2023-02-11T06:17:34;101320.84;;;8.30;69.70
30021;BME280;16861;52.294;7.760;2023-02-11T06:20:04;101327.88;;;8.30;69.62
30021;BME280;16861;52.294;7.760;2023-02-11T06:22:31;101327.88;;;8.30;69.55
30021;BME280;16861;52.294;7.760;2023-02-11T06:25:00;101332.25;;;8.29;69.67
30021;BME280;16861;52.294;7.760;2023-02-11T06:27:28;101315.63;;;8.29;69.48
30021;BME280;16861;52.294;7.760;2023-02-11T06:29:54;101330.53;;;8.28;69.83
30021;BME280;16861;52.294;7.760;2023-02-11T06:32:21;101340.16;;;8.28;69.97
30021;BME280;16861;52.294;7.760;2023-02-11T06:35:08;101337.53;;;8.28;70.08
30021;BME280;16861;52.294;7.760;2023-02-11T06:37:37;101318.25;;;8.29;69.96
30021;BME280;16861;52.294;7.760;2023-02-11T06:40:04;101332.25;;;8.29;69.92
30021;BME280;16861;52.294;7.760;2023-02-11T06:42:30;101328.72;;;8.30;69.89
30021;BME280;16861;52.294;7.760;2023-02-11T06:44:57;101321.72;;;8.31;69.88
30021;BME280;16861;52.294;7.760;2023-02-11T06:47:23;101326.06;;;8.32;69.98
30021;BME280;16861;52.294;7.760;2023-02-11T06:49:50;101325.16;;;8.33;70.06
30021;BME280;16861;52.294;7.760;2023-02-11T06:52:17;101332.19;;;8.32;69.89
30021;BME280;16861;52.294;7.760;2023-02-11T06:54:43;101347.06;;;8.32;70.10
30021;BME280;16861;52.294;7.760;2023-02-11T06:57:10;101328.66;;;8.33;70.25
30021;BME280;16861;52.294;7.760;2023-02-11T06:59:36;101326.06;;;8.32;69.91
30021;BME280;16861;52.294;7.760;2023-02-11T07:02:03;101322.53;;;8.33;69.90
30021;BME280;16861;52.294;7.760;2023-02-11T07:04:30;101317.28;;;8.33;69.99
30021;BME280;16861;52.294;7.760;2023-02-11T07:06:56;101333.03;;;8.33;70.48
30021;BME280;16861;52.294;7.760;2023-02-11T07:09:23;101331.28;;;8.33;69.92
30021;BME280;16861;52.294;7.760;2023-02-11T07:11:49;101323.41;;;8.33;70.26
30021;BME280;16861;52.294;7.760;2023-02-11T07:14:16;101317.28;;;8.34;70.50
30021;BME280;16861;52.294;7.760;2023-02-11T07:16:42;101321.63;;;8.35;70.43
30021;BME280;16861;52.294;7.760;2023-02-11T07:19:09;101324.25;;;8.35;70.37
30021;BME280;16861;52.294;7.760;2023-02-11T07:21:36;101325.97;;;8.38;70.46
30021;BME280;16861;52.294;7.760;2023-02-11T07:24:06;101324.25;;;8.35;70.81
30021;BME280;16861;52.294;7.760;2023-02-11T07:26:36;101332.97;;;8.36;70.40
30021;BME280;16861;52.294;7.760;2023-02-11T07:29:05;101338.19;;;8.38;70.45
30021;BME280;16861;52.294;7.760;2023-02-11T07:31:32;101353.06;;;8.37;70.48
30021;BME280;16861;52.294;7.760;2023-02-11T07:34:01;101356.59;;;8.36;71.08
30021;BME280;16861;52.294;7.760;2023-02-11T07:36:29;101344.34;;;8.37;70.54
30021;BME280;16861;52.294;7.760;2023-02-11T07:38:57;101355.69;;;8.37;70.64
30021;BME280;16861;52.294;7.760;2023-02-11T07:41:24;101359.22;;;8.36;70.45
30021;BME280;16861;52.294;7.760;2023-02-11T07:43:51;101363.59;;;8.35;70.52
30021;BME280;16861;52.294;7.760;2023-02-11T07:46:20;101362.72;;;8.37;70.60
30021;BME280;16861;52.294;7.760;2023-02-11T07:48:47;101363.59;;;8.35;70.43
30021;BME280;16861;52.294;7.760;2023-02-11T07:51:19;101361.88;;;8.34;70.63
30021;BME280;16861;52.294;7.760;2023-02-11T07:53:46;101357.50;;;8.35;70.55
30021;BME280;16861;52.294;7.760;2023-02-11T07:56:14;101352.28;;;8.33;70.87
30021;BME280;16861;52.294;7.760;2023-02-11T07:58:42;101358.41;;;8.34;70.75
30021;BME280;16861;52.294;7.760;2023-02-11T08:01:22;101366.34;;;8.31;71.81
30021;BME280;16861;52.294;7.760;2023-02-11T08:03:51;101361.91;;;8.33;70.77
30021;BME280;16861;52.294;7.760;2023-02-11T08:06:20;101352.34;;;8.30;71.29
30021;BME280;16861;52.294;7.760;2023-02-11T08:08:47;101365.44;;;8.32;70.95
30021;BME280;16861;52.294;7.760;2023-02-11T08:11:17;101372.47;;;8.30;71.47
30021;BME280;16861;52.294;7.760;2023-02-11T08:13:44;101368.06;;;8.32;71.00
30021;BME280;16861;52.294;7.760;2023-02-11T08:16:26;101375.97;;;8.29;72.33
30021;BME280;16861;52.294;7.760;2023-02-11T08:18:55;101378.56;;;8.30;72.05
30021;BME280;16861;52.294;7.760;2023-02-11T08:21:23;101382.94;;;8.31;71.36
30021;BME280;16861;52.294;7.760;2023-02-11T08:23:50;101366.34;;;8.31;71.39
30021;BME280;16861;52.294;7.760;2023-02-11T08:26:19;101373.31;;;8.30;71.55
30021;BME280;16861;52.294;7.760;2023-02-11T08:28:47;101372.41;;;8.33;71.42
30021;BME280;16861;52.294;7.760;2023-02-11T08:31:20;101368.06;;;8.32;72.18
30021;BME280;16861;52.294;7.760;2023-02-11T08:33:47;101366.28;;;8.34;71.77
30021;BME280;16861;52.294;7.760;2023-02-11T08:36:16;101374.09;;;8.35;71.95
30021;BME280;16861;52.294;7.760;2023-02-11T08:38:43;101373.19;;;8.38;72.00
30021;BME280;16861;52.294;7.760;2023-02-11T08:41:10;101372.28;;;8.39;72.06
30021;BME280;16861;52.294;7.760;2023-02-11T08:43:37;101372.22;;;8.42;72.11
30021;BME280;16861;52.294;7.760;2023-02-11T08:46:08;101383.53;;;8.44;71.85
30021;BME280;16861;52.294;7.760;2023-02-11T08:48:35;101386.09;;;8.47;72.38
30021;BME280;16861;52.294;7.760;2023-02-11T08:51:23;101400.09;;;8.46;72.98
30021;BME280;16861;52.294;7.760;2023-02-11T08:53:50;101403.50;;;8.53;72.36
30021;BME280;16861;52.294;7.760;2023-02-11T08:56:20;101403.50;;;8.53;72.18
30021;BME280;16861;52.294;7.760;2023-02-11T08:58:46;101399.09;;;8.55;71.90
30021;BME280;16861;52.294;7.760;2023-02-11T09:03:56;101404.31;;;8.57;73.40
30021;BME280;16861;52.294;7.760;2023-02-11T09:06:24;101418.19;;;8.62;72.04
30021;BME280;16861;52.294;7.760;2023-02-11T09:08:53;101417.31;;;8.62;72.04
30021;BME280;16861;52.294;7.760;2023-02-11T09:11:25;101416.47;;;8.61;72.35
30021;BME280;16861;52.294;7.760;2023-02-11T09:13:54;101420.78;;;8.64;72.31
30021;BME280;16861;52.294;7.760;2023-02-11T09:16:24;101426.91;;;8.64;72.26
30021;BME280;16861;52.294;7.760;2023-02-11T09:18:52;101427.72;;;8.66;72.40
30021;BME280;16861;52.294;7.760;2023-02-11T09:21:19;101435.56;;;8.68;72.39
30021;BME280;16861;52.294;7.760;2023-02-11T09:23:46;101448.63;;;8.71;72.30
30021;BME280;16861;52.294;7.760;2023-02-11T09:26:25;101455.66;;;8.69;72.87
30021;BME280;16861;52.294;7.760;2023-02-11T09:28:52;101454.69;;;8.73;72.16
30021;BME280;16861;52.294;7.760;2023-02-11T09:31:21;101457.31;;;8.73;72.26
30021;BME280;16861;52.294;7.760;2023-02-11T09:33:50;101460.81;;;8.73;72.43
30021;BME280;16861;52.294;7.760;2023-02-11T09:36:20;101457.28;;;8.75;72.39
30021;BME280;16861;52.294;7.760;2023-02-11T09:38:48;101459.88;;;8.78;71.96
30021;BME280;16861;52.294;7.760;2023-02-11T09:41:32;101459.91;;;8.76;73.00
30021;BME280;16861;52.294;7.760;2023-02-11T09:44:02;101469.44;;;8.80;72.29
30021;BME280;16861;52.294;7.760;2023-02-11T09:46:34;101480.75;;;8.82;72.62
30021;BME280;16861;52.294;7.760;2023-02-11T09:49:02;101477.28;;;8.82;72.17
30021;BME280;16861;52.294;7.760;2023-02-11T09:51:39;101485.22;;;8.79;73.23
30021;BME280;16861;52.294;7.760;2023-02-11T09:54:16;101486.94;;;8.80;72.67
30021;BME280;16861;52.294;7.760;2023-02-11T09:56:44;101493.84;;;8.84;72.06
30021;BME280;16861;52.294;7.760;2023-02-11T09:59:14;101499.09;;;8.84;72.42
30021;BME280;16861;52.294;7.760;2023-02-11T10:01:49;101495.56;;;8.85;72.84
30021;BME280;16861;52.294;7.760;2023-02-11T10:07:09;101501.69;;;8.87;72.90
30021;BME280;16861;52.294;7.760;2023-02-11T10:12:31;101509.47;;;8.90;72.76
30021;BME280;16861;52.294;7.760;2023-02-11T10:20:48;101511.13;;;8.94;73.16
30021;BME280;16861;52.294;7.760;2023-02-11T10:23:22;101522.41;;;8.99;72.61
30021;BME280;16861;52.294;7.760;2023-02-11T10:25:53;101531.13;;;9.02;72.46
30021;BME280;16861;52.294;7.760;2023-02-11T10:28:35;101538.19;;;8.99;73.32
30021;BME280;16861;52.294;7.760;2023-02-11T10:31:08;101541.59;;;9.03;73.29
30021;BME280;16861;52.294;7.760;2023-02-11T10:33:53;101544.19;;;9.05;73.42
30021;BME280;16861;52.294;7.760;2023-02-11T10:36:27;101533.63;;;9.08;73.23
30021;BME280;16861;52.294;7.760;2023-02-11T10:38:54;101526.53;;;9.11;72.94
30021;BME280;16861;52.294;7.760;2023-02-11T10:41:27;101530.88;;;9.12;72.93
30021;BME280;16861;52.294;7.760;2023-02-11T10:43:55;101534.28;;;9.16;72.64
30021;BME280;16861;52.294;7.760;2023-02-11T10:46:30;101530.78;;;9.17;73.08
30021;BME280;16861;52.294;7.760;2023-02-11T10:48:57;101536.81;;;9.22;72.64
30021;BME280;16861;52.294;7.760;2023-02-11T10:51:29;101532.34;;;9.24;72.54
30021;BME280;16861;52.294;7.760;2023-02-11T10:56:45;101526.97;;;9.31;72.79
30021;BME280;16861;52.294;7.760;2023-02-11T11:01:56;101525.16;;;9.33;72.90
30021;BME280;16861;52.294;7.760;2023-02-11T11:04:42;101534.78;;;9.34;72.90
30021;BME280;16861;52.294;7.760;2023-02-11T11:07:15;101540.81;;;9.39;72.46
30021;BME280;16861;52.294;7.760;2023-02-11T11:12:47;101544.22;;;9.43;72.72
30021;BME280;16861;52.294;7.760;2023-02-11T11:17:41;101526.56;;;9.48;72.46
30021;BME280;16861;52.294;7.760;2023-02-11T11:20:29;101526.63;;;9.45;72.76
30021;BME280;16861;52.294;7.760;2023-02-11T11:23:13;101522.19;;;9.48;72.75
30021;BME280;16861;52.294;7.760;2023-02-11T11:25:44;101512.47;;;9.52;72.36
30021;BME280;16861;52.294;7.760;2023-02-11T11:28:29;101519.50;;;9.51;72.79
30021;BME280;16861;52.294;7.760;2023-02-11T11:30:58;101525.53;;;9.55;72.10
30021;BME280;16861;52.294;7.760;2023-02-11T11:33:28;101525.53;;;9.55;72.39
30021;BME280;16861;52.294;7.760;2023-02-11T11:36:07;101527.28;;;9.55;72.39
30021;BME280;16861;52.294;7.760;2023-02-11T11:38:44;101524.63;;;9.56;72.50
30021;BME280;16861;52.294;7.760;2023-02-11T11:41:27;101523.72;;;9.57;72.63
30021;BME280;16861;52.294;7.760;2023-02-11T11:46:31;101507.81;;;9.63;72.64
30021;BME280;16861;52.294;7.760;2023-02-11T11:49:29;101499.00;;;9.64;73.14
30021;BME280;16861;52.294;7.760;2023-02-11T11:52:24;101506.81;;;9.69;72.92
30021;BME280;16861;52.294;7.760;2023-02-11T11:58:22;101503.03;;;9.80;72.63
30021;BME280;16861;52.294;7.760;2023-02-11T12:01:04;101504.66;;;9.84;72.52
30021;BME280;16861;52.294;7.760;2023-02-11T12:25:15;101507.56;;;10.08;72.37
30021;BME280;16861;52.294;7.760;2023-02-11T12:27:17;101503.81;;;10.16;72.19
30021;BME280;16861;52.294;7.760;2023-02-11T12:33:02;101504.47;;;10.25;72.21
30021;BME280;16861;52.294;7.760;2023-02-11T12:41:56;101501.50;;;10.37;71.84
30021;BME280;16861;52.294;7.760;2023-02-11T12:47:50;101517.06;;;10.47;71.46
30021;BME280;16861;52.294;7.760;2023-02-11T12:55:47;101516.84;;;10.54;71.16
30021;BME280;16861;52.294;7.760;2023-02-11T12:58:20;101515.97;;;10.54;70.99
30021;BME280;16861;52.294;7.760;2023-02-11T13:03:55;101503.66;;;10.56;71.05
30021;BME280;16861;52.294;7.760;2023-02-11T13:06:29;101518.53;;;10.57;71.10
30021;BME280;16861;52.294;7.760;2023-02-11T13:09:02;101517.63;;;10.58;71.24
30021;BME280;16861;52.294;7.760;2023-02-11T13:11:38;101529.94;;;10.58;71.05
30021;BME280;16861;52.294;7.760;2023-02-11T13:14:13;101519.31;;;10.61;71.16
30021;BME280;16861;52.294;7.760;2023-02-11T13:16:44;101529.84;;;10.61;70.93
30021;BME280;16861;52.294;7.760;2023-02-11T13:19:31;101510.59;;;10.59;70.83
30021;BME280;16861;52.294;7.760;2023-02-11T13:22:12;101500.91;;;10.61;71.03
30021;BME280;16861;52.294;7.760;2023-02-11T13:24:48;101497.34;;;10.62;70.97
30021;BME280;16861;52.294;7.760;2023-02-11T13:27:40;101499.16;;;10.60;71.14
30021;BME280;16861;52.294;7.760;2023-02-11T13:30:32;101502.56;;;10.63;71.00
30021;BME280;16861;52.294;7.760;2023-02-11T13:35:37;101505.94;;;10.68;71.03
30021;BME280;16861;52.294;7.760;2023-02-11T13:38:21;101511.16;;;10.70;71.00
30021;BME280;16861;52.294;7.760;2023-02-11T13:43:34;101510.88;;;10.79;71.17
30021;BME280;16861;52.294;7.760;2023-02-11T13:46:11;101513.34;;;10.84;71.21
30021;BME280;16861;52.294;7.760;2023-02-11T13:48:49;101503.63;;;10.88;71.08
30021;BME280;16861;52.294;7.760;2023-02-11T13:51:34;101511.28;;;10.95;71.11
30021;BME280;16861;52.294;7.760;2023-02-11T13:54:01;101516.22;;;11.06;71.18
30021;BME280;16861;52.294;7.760;2023-02-11T13:59:05;101514.09;;;11.19;70.98
30021;BME280;16861;52.294;7.760;2023-02-11T14:16:17;101494.38;;;11.58;70.29
30021;BME280;16861;52.294;7.760;2023-02-11T14:19:03;101499.56;;;11.62;70.02
30021;BME280;16861;52.294;7.760;2023-02-11T14:21:38;101497.75;;;11.62;69.51
30021;BME280;16861;52.294;7.760;2023-02-11T14:29:21;101501.06;;;11.69;69.10
30021;BME280;16861;52.294;7.760;2023-02-11T14:40:32;101516.56;;;11.78;69.06
30021;BME280;16861;52.294;7.760;2023-02-11T14:43:11;101513.13;;;11.76;68.79
30021;BME280;16861;52.294;7.760;2023-02-11T14:45:39;101514.75;;;11.80;69.13
30021;BME280;16861;52.294;7.760;2023-02-11T14:48:17;101516.66;;;11.77;68.70
30021;BME280;16861;52.294;7.760;2023-02-11T14:50:53;101513.94;;;11.78;68.76
30021;BME280;16861;52.294;7.760;2023-02-11T14:53:25;101514.75;;;11.80;69.21
30021;BME280;16861;52.294;7.760;2023-02-11T14:55:54;101519.06;;;11.83;69.00
30021;BME280;16861;52.294;7.760;2023-02-11T14:58:26;101510.28;;;11.82;68.75
30021;BME280;16861;52.294;7.760;2023-02-11T15:00:57;101517.31;;;11.83;68.87
30021;BME280;16861;52.294;7.760;2023-02-11T15:03:25;101514.66;;;11.83;68.69
30021;BME280;16861;52.294;7.760;2023-02-11T15:05:58;101516.47;;;11.81;68.52
30021;BME280;16861;52.294;7.760;2023-02-11T15:08:26;101520.91;;;11.81;68.52
30021;BME280;16861;52.294;7.760;2023-02-11T15:10:54;101523.59;;;11.79;68.43
30021;BME280;16861;52.294;7.760;2023-02-11T15:13:22;101521.06;;;11.76;68.36
30021;BME280;16861;52.294;7.760;2023-02-11T15:15:54;101521.16;;;11.73;68.33
30021;BME280;16861;52.294;7.760;2023-02-11T15:18:31;101528.31;;;11.69;68.35
30021;BME280;16861;52.294;7.760;2023-02-11T15:20:58;101524.78;;;11.69;68.44
30021;BME280;16861;52.294;7.760;2023-02-11T15:23:27;101534.59;;;11.65;68.13
30021;BME280;16861;52.294;7.760;2023-02-11T15:25:54;101538.09;;;11.66;68.53